LGMT

Mytilini

Airport
ICAO code
LGMT
IATA Code
MJT
Summary
ICAO Region
EUR
ICAO Territory
Location

Mytilene, Lesbos

Serving
Lesbos
Elevation
60 ft
Coordinates
39° 3' 24" N , 26° 35' 54" E
KCC
Metar
LGMT 241150Z 20010KT 9999 SCT025 19/12 Q1022

Description

International airport serving Lesbos, Greece.

Climatology

Mediterranean climate (Köppen climate classification Csa) - Hot, dry summer and a mild wet winter.

Runways

Designator Length Width Surface Rops
14/32 2406 45 ASP Yes/Yes

Airport map

Aerial View

SKYbrary Partners:

Safety knowledge contributed by: